Terminal Aerodrome Forecast
Issued by NWS Cleveland, OH

Home | Current Version | Previous Version | Graphics & Text | Print | Product List | Glossary On
Versions: 1 2 3 4 5 6 7 8 9 10 11 12 13
000
FTUS41 KCLE 261739
TAFTOL
TAF
KTOL 261739Z 2618/2718 31008KT P6SM SCT025 OVC040
      TEMPO 2618/2620 BKN025 OVC040
     FM270900 35003KT 4SM BR BKN030
     FM271300 35003KT P6SM BKN040=

USA.gov is the U.S. government's official web portal to all federal, state and local government web resources and services.